createdAt,value
2022-10-14T06:33:00.066Z,91.95
2022-10-14T06:35:26.957Z,68.18
2022-10-14T06:37:53.780Z,88.45
2022-10-14T06:40:20.787Z,65.90
2022-10-14T06:42:47.685Z,76.70
2022-10-14T06:45:14.550Z,92.72
2022-10-14T06:47:41.566Z,123.22
2022-10-14T06:50:08.457Z,86.45
2022-10-14T06:52:35.334Z,69.10
2022-10-14T06:55:02.161Z,74.68
2022-10-14T06:57:28.946Z,62.47
2022-10-14T06:59:56.165Z,64.32
2022-10-14T07:02:26.063Z,57.30
2022-10-14T07:04:52.819Z,62.20
2022-10-14T07:07:19.651Z,69.93
2022-10-14T07:09:49.081Z,57.50
2022-10-14T07:12:15.936Z,73.30
2022-10-14T07:14:42.748Z,64.85
2022-10-14T07:17:09.654Z,62.42
2022-10-14T07:19:36.412Z,62.15
2022-10-14T07:22:03.271Z,58.40
2022-10-14T07:24:30.095Z,73.28
2022-10-14T07:26:57.140Z,70.03
2022-10-14T07:29:24.009Z,48.42
2022-10-14T07:31:50.938Z,49.80
2022-10-14T07:34:18.131Z,56.05
2022-10-14T07:36:45.050Z,62.95
2022-10-14T07:39:12.620Z,58.30
2022-10-14T07:41:40.248Z,56.20
2022-10-14T07:44:09.441Z,44.90
2022-10-14T07:46:42.669Z,52.30
2022-10-14T07:49:14.008Z,55.85
2022-10-14T07:51:41.471Z,50.90
2022-10-14T07:54:13.668Z,52.75
2022-10-14T07:56:42.941Z,50.35
2022-10-14T07:59:10.000Z,56.03
2022-10-14T08:01:37.425Z,63.10
2022-10-14T08:04:04.348Z,55.45
2022-10-14T08:06:31.222Z,51.50
2022-10-14T08:08:58.081Z,48.40
2022-10-14T08:11:28.792Z,55.28
2022-10-14T08:13:57.581Z,44.45
2022-10-14T08:16:30.188Z,50.97
2022-10-14T08:21:25.688Z,57.50
2022-10-14T08:23:53.215Z,46.05
2022-10-14T08:26:35.102Z,57.10
2022-10-14T08:29:04.905Z,50.80
2022-10-14T08:31:32.887Z,44.00
2022-10-14T08:34:00.145Z,50.83
2022-10-14T08:36:27.075Z,47.53
2022-10-14T08:38:54.816Z,44.40
2022-10-14T08:41:39.818Z,52.20
2022-10-14T08:44:26.143Z,49.72
2022-10-14T08:46:59.185Z,41.70
2022-10-14T08:49:57.168Z,58.78
2022-10-14T08:52:37.514Z,43.03
2022-10-14T08:55:35.641Z,53.00
2022-10-14T08:58:28.621Z,59.10
2022-10-14T09:00:56.494Z,49.08
2022-10-14T09:03:36.906Z,45.33
2022-10-14T09:06:28.448Z,55.15
2022-10-14T09:09:00.288Z,57.50
2022-10-14T09:11:34.289Z,54.83
2022-10-14T09:14:02.759Z,58.00
2022-10-14T09:16:37.115Z,54.97
2022-10-14T09:19:12.062Z,61.63
2022-10-14T09:21:52.741Z,57.80
2022-10-14T09:24:32.593Z,56.88
2022-10-14T09:27:10.978Z,55.50
2022-10-14T09:29:47.156Z,52.03
2022-10-14T09:32:32.004Z,58.17
2022-10-14T09:35:01.063Z,78.30
2022-10-14T09:37:33.892Z,61.15
2022-10-14T09:40:02.522Z,49.70
2022-10-14T09:42:55.568Z,73.20
2022-10-14T09:45:24.602Z,58.95
2022-10-14T09:47:56.426Z,61.50
2022-10-14T09:50:51.732Z,60.40
2022-10-14T09:53:36.599Z,60.88
2022-10-14T09:56:07.017Z,60.35
2022-10-14T09:58:50.984Z,68.82
2022-10-14T10:01:21.435Z,86.50
2022-10-14T10:03:50.019Z,71.40
2022-10-14T10:06:23.428Z,75.18
2022-10-14T10:08:53.172Z,62.60
2022-10-14T10:11:37.402Z,66.20
2022-10-14T10:14:22.904Z,58.75
2022-10-14T10:16:52.242Z,72.32
2022-10-14T10:19:34.409Z,61.03
2022-10-14T10:22:24.529Z,70.57
2022-10-14T10:25:01.352Z,69.95
2022-10-14T10:27:48.835Z,64.43
2022-10-14T10:30:22.035Z,63.17
2022-10-14T10:33:33.681Z,71.97
2022-10-14T10:36:21.220Z,74.22
2022-10-14T10:38:51.571Z,61.05
2022-10-14T10:41:40.202Z,68.50
2022-10-14T10:44:23.954Z,77.50
2022-10-14T10:47:14.178Z,63.10
2022-10-14T10:49:40.956Z,76.20
2022-10-14T10:52:28.764Z,84.80
2022-10-14T10:55:00.238Z,67.25
2022-10-14T10:57:52.728Z,79.05
2022-10-14T11:00:22.735Z,83.45
2022-10-14T11:02:49.619Z,79.15
2022-10-14T11:05:22.122Z,73.53
2022-10-14T11:08:13.370Z,72.43
2022-10-14T11:11:13.942Z,89.00
2022-10-14T11:13:56.193Z,83.78
2022-10-14T11:16:42.819Z,87.05
2022-10-14T11:19:17.298Z,82.22
2022-10-14T11:21:59.256Z,78.80
2022-10-14T11:24:48.130Z,83.18
2022-10-14T11:27:26.757Z,90.05
2022-10-14T11:29:57.770Z,73.72
2022-10-14T11:32:35.106Z,74.63
2022-10-14T11:35:28.684Z,75.90
2022-10-14T11:37:58.393Z,89.45
2022-10-14T11:40:31.642Z,88.35
2022-10-14T11:43:01.828Z,77.93
2022-10-14T11:45:47.154Z,81.03
2022-10-14T11:48:26.406Z,75.15
2022-10-14T11:51:08.161Z,74.50
2022-10-14T11:53:56.902Z,81.72
2022-10-14T11:56:31.759Z,89.60
2022-10-14T11:59:03.766Z,75.57
2022-10-14T12:01:35.624Z,89.97
2022-10-14T12:04:15.972Z,87.18
2022-10-14T12:06:52.936Z,83.20
2022-10-14T12:09:43.142Z,89.25
2022-10-14T12:12:13.727Z,82.70
2022-10-14T12:14:46.407Z,82.10
2022-10-14T12:17:22.957Z,90.50
2022-10-14T12:19:51.297Z,81.10
2022-10-14T12:22:20.447Z,87.22
2022-10-14T12:24:52.780Z,88.28
2022-10-14T12:27:21.986Z,91.93
2022-10-14T12:29:50.895Z,90.43
2022-10-14T12:32:20.903Z,92.70
2022-10-14T12:35:04.184Z,88.40
2022-10-14T12:37:32.312Z,84.40
2022-10-14T12:40:02.267Z,84.38
2022-10-14T12:42:31.119Z,85.88
2022-10-14T12:45:01.968Z,83.38
2022-10-14T12:47:36.241Z,78.95
2022-10-14T12:50:18.957Z,84.28
2022-10-14T12:52:56.287Z,83.38
2022-10-14T12:55:26.207Z,79.43
2022-10-14T12:58:00.002Z,92.95
2022-10-14T13:00:26.804Z,75.28
2022-10-14T13:02:59.316Z,93.10
2022-10-14T13:05:26.276Z,96.63
2022-10-14T13:08:20.917Z,76.82
2022-10-14T13:10:50.263Z,67.85
2022-10-14T13:13:38.788Z,87.82
2022-10-14T13:16:10.110Z,82.15
2022-10-14T13:18:42.975Z,70.57
2022-10-14T13:21:20.444Z,79.70
2022-10-14T13:23:51.795Z,69.05
2022-10-14T13:26:33.712Z,77.68
2022-10-14T13:29:30.363Z,74.10
2022-10-14T13:32:36.594Z,65.00
2022-10-14T13:35:06.716Z,78.97
2022-10-14T13:38:01.201Z,70.20
2022-10-14T13:40:31.604Z,67.45
2022-10-14T13:43:00.989Z,80.30
2022-10-14T13:45:42.135Z,74.63
2022-10-14T13:48:18.118Z,66.75
2022-10-14T13:50:49.770Z,75.68
2022-10-14T13:53:22.546Z,71.40
2022-10-14T13:55:54.917Z,69.82
2022-10-14T14:00:52.332Z,62.08
2022-10-14T14:03:24.854Z,78.05
2022-10-14T14:08:41.854Z,65.55
2022-10-14T14:11:17.643Z,57.95
2022-10-14T14:14:01.159Z,62.28
2022-10-14T14:16:39.255Z,59.97
2022-10-14T14:19:09.530Z,55.53
2022-10-14T14:21:37.173Z,60.55
2022-10-14T14:24:16.614Z,69.90
2022-10-14T14:26:53.779Z,58.50
2022-10-14T14:29:27.627Z,65.95
2022-10-14T14:32:10.801Z,68.85
2022-10-14T14:34:39.925Z,67.57
2022-10-14T14:37:44.002Z,60.55
2022-10-14T14:40:21.539Z,67.65
2022-10-14T14:42:52.247Z,70.38
2022-10-14T14:45:20.497Z,66.10
2022-10-14T14:47:53.298Z,63.70
2022-10-14T14:50:30.643Z,68.63
2022-10-14T14:53:02.282Z,80.47
2022-10-14T14:55:57.423Z,67.53
2022-10-14T14:58:36.199Z,64.93
2022-10-14T15:01:07.172Z,58.75
2022-10-14T15:04:13.805Z,77.75
2022-10-14T15:06:51.686Z,60.20
2022-10-14T15:09:44.136Z,57.70
2022-10-14T15:12:23.388Z,66.97
2022-10-14T15:14:58.392Z,66.97
2022-10-14T15:17:29.302Z,67.38
2022-10-14T15:20:00.118Z,67.35
2022-10-14T15:22:30.486Z,71.78
2022-10-14T15:25:21.778Z,67.65
2022-10-14T15:27:49.969Z,63.22
2022-10-14T15:30:27.420Z,67.28
2022-10-14T15:33:03.365Z,60.05
2022-10-14T15:35:32.376Z,68.80
2022-10-14T15:37:59.222Z,113.03
2022-10-14T15:40:31.831Z,75.57
2022-10-14T15:42:59.093Z,87.03
2022-10-14T15:45:26.409Z,103.88
2022-10-14T15:48:00.318Z,104.10
2022-10-14T15:50:27.602Z,80.80
2022-10-14T15:52:56.915Z,96.25
2022-10-14T15:55:31.138Z,72.78
2022-10-14T15:57:59.466Z,74.20
2022-10-14T16:00:26.310Z,105.30
2022-10-14T16:03:00.843Z,73.75
2022-10-14T16:05:29.506Z,64.03
2022-10-14T16:07:57.497Z,82.97
2022-10-14T16:10:28.216Z,63.03
2022-10-14T16:12:57.663Z,70.40
2022-10-14T16:15:58.729Z,58.28
2022-10-14T16:18:26.502Z,67.53
2022-10-14T16:20:57.367Z,64.72
2022-10-14T16:23:29.747Z,70.93
2022-10-14T16:26:00.251Z,72.75
2022-10-14T16:28:27.171Z,65.68
2022-10-14T16:30:54.094Z,69.00
2022-10-14T16:33:22.310Z,60.90
2022-10-14T16:35:54.497Z,68.82
2022-10-14T16:38:22.384Z,64.35
2022-10-14T16:41:00.563Z,54.17
2022-10-14T16:43:29.101Z,85.05
2022-10-14T16:46:00.780Z,53.72
2022-10-14T16:48:27.970Z,70.32
2022-10-14T16:50:55.407Z,49.35
2022-10-14T16:53:40.695Z,60.28
2022-10-14T16:56:32.669Z,62.55
2022-10-14T16:59:01.028Z,62.42
2022-10-14T17:01:28.697Z,62.30
2022-10-14T17:03:56.621Z,64.18
2022-10-14T17:06:24.726Z,52.40
2022-10-14T17:08:52.404Z,70.82
2022-10-14T17:11:19.769Z,68.72
2022-10-14T17:13:47.945Z,79.75
2022-10-14T17:16:14.797Z,72.18
2022-10-14T17:18:43.032Z,78.07
2022-10-14T17:21:13.744Z,70.15
2022-10-14T17:23:42.338Z,55.17
2022-10-14T17:26:14.723Z,66.07
2022-10-14T17:28:45.182Z,73.00
2022-10-14T17:31:16.274Z,90.18
2022-10-14T17:33:43.921Z,64.40
2022-10-14T17:36:21.871Z,65.20
2022-10-14T17:38:50.797Z,57.80
2022-10-14T17:41:18.694Z,59.58
2022-10-14T17:43:49.473Z,59.78
2022-10-14T17:46:20.747Z,67.78
2022-10-14T17:48:53.113Z,70.80
2022-10-14T17:51:25.182Z,55.00
2022-10-14T17:53:58.191Z,74.03
2022-10-14T17:56:26.049Z,67.82
2022-10-14T17:58:54.736Z,83.70
2022-10-14T18:01:36.720Z,64.45
2022-10-14T18:04:09.035Z,71.03
2022-10-14T18:06:37.324Z,70.10
2022-10-14T18:09:06.623Z,66.65
2022-10-14T18:14:29.025Z,65.28
2022-10-14T18:16:55.901Z,65.65
2022-10-14T18:19:22.828Z,59.22
2022-10-14T18:21:51.791Z,63.85
2022-10-14T18:24:18.715Z,64.00
2022-10-14T18:26:45.508Z,68.72
2022-10-14T18:29:12.370Z,62.28
2022-10-14T18:31:39.445Z,63.00
2022-10-14T18:34:09.112Z,66.72
2022-10-14T18:36:35.857Z,96.07
2022-10-14T18:39:06.659Z,75.68
2022-10-14T18:41:33.892Z,79.55
2022-10-14T18:44:04.712Z,71.93
2022-10-14T18:46:38.783Z,63.55
2022-10-14T18:49:07.568Z,60.78
2022-10-14T18:51:36.851Z,78.68
2022-10-14T18:54:10.158Z,81.47
2022-10-14T18:56:40.677Z,87.90
2022-10-14T18:59:15.887Z,77.65
2022-10-14T19:01:43.556Z,91.25
2022-10-14T19:04:13.031Z,79.47
2022-10-14T19:06:40.240Z,72.25
2022-10-14T19:09:09.304Z,69.65
2022-10-14T19:11:36.207Z,70.55
2022-10-14T19:14:04.654Z,64.05
2022-10-14T19:16:36.977Z,63.78
2022-10-14T19:19:11.969Z,64.93
2022-10-14T19:21:39.550Z,66.80
2022-10-14T19:24:08.167Z,73.95
2022-10-14T19:26:37.528Z,72.10
2022-10-14T19:29:10.657Z,65.60
2022-10-14T19:31:39.562Z,79.55
2022-10-14T19:34:08.202Z,73.03
2022-10-14T19:36:37.359Z,76.10
2022-10-14T19:39:05.605Z,85.63
2022-10-14T19:41:34.665Z,67.38
2022-10-14T19:44:01.804Z,81.13
2022-10-14T19:46:29.902Z,83.97
2022-10-14T19:48:59.257Z,81.22
2022-10-14T19:51:27.226Z,69.30
2022-10-14T19:53:58.410Z,79.93
2022-10-14T19:56:26.499Z,83.13
2022-10-14T19:58:55.504Z,83.70
2022-10-14T20:01:24.519Z,77.88
2022-10-14T20:03:52.653Z,71.60
2022-10-14T20:06:20.619Z,60.90
2022-10-14T20:08:47.927Z,70.28
2022-10-14T20:11:19.807Z,68.57
2022-10-14T20:13:46.865Z,67.95
2022-10-14T20:16:14.215Z,70.05
2022-10-14T20:18:41.567Z,72.15
2022-10-14T20:21:11.116Z,70.47
2022-10-14T20:23:38.400Z,80.38
2022-10-14T20:26:15.000Z,80.45
2022-10-14T20:28:41.976Z,74.30
2022-10-14T20:31:10.597Z,74.25
2022-10-14T20:33:37.985Z,80.45
2022-10-14T20:36:17.024Z,80.35
2022-10-14T20:38:44.495Z,83.63
2022-10-14T20:41:14.875Z,93.10
2022-10-14T20:43:42.775Z,76.70
2022-10-14T20:46:10.187Z,77.00
2022-10-14T20:48:37.457Z,72.65
